Time;durP1;ratioP1;P1;durP2;ratioP2;P2;SDS_P1;SDS_P2;PMS_P1;PMS_P2;Temp;Humidity;BMP_temperature;BMP_pressure;BME280_temperature;BME280_humidity;BME280_pressure;Samples;Min_cycle;Max_cycle;Signal;HPM_P1;HPM_P2
2022/10/08 00:00:45;;;;;;;;;;;;;;;12.41;82.92;98280.22;4905256;29;19954;-57
2022/10/08 00:03:13;;;;;;;;;;;;;;;12.37;83.01;98279.22;4910890;29;20025;-57
2022/10/08 00:05:42;;;;;;;;;;;;;;;12.35;82.94;98278.72;4911288;29;19927;-57
2022/10/08 00:08:10;;;;;;;;;;;;;;;12.32;82.91;98276.63;4895304;29;20372;-57
2022/10/08 00:11:03;;;;;;;;;;;;;;;12.28;83.15;98271.00;4911936;29;19927;-57
2022/10/08 00:13:39;;;;;;;;;;;;;;;12.28;82.88;98270.19;4911859;29;20459;-57
2022/10/08 00:16:11;;;;;;;;;;;;;;;12.19;83.27;98263.88;4909372;29;19931;-57
2022/10/08 00:18:39;;;;;;;;;;;;;;;12.24;83.00;98263.75;4897867;29;20296;-57
2022/10/08 00:21:08;;;;;;;;;;;;;;;12.22;83.00;98263.28;4915193;29;20029;-57
2022/10/08 00:23:36;;;;;;;;;;;;;;;12.19;83.08;98258.44;4915410;29;19931;-57
2022/10/08 00:26:06;;;;;;;;;;;;;;;12.18;83.18;98256.84;4915469;29;19931;-58
2022/10/08 00:28:59;;;;;;;;;;;;;;;12.15;83.25;98260.22;4914902;29;19931;-57
2022/10/08 00:31:30;;;;;;;;;;;;;;;12.07;83.50;98259.84;4905910;29;20304;-57
2022/10/08 00:33:59;;;;;;;;;;;;;;;12.11;83.46;98256.50;4915284;29;19928;-57
2022/10/08 00:36:28;;;;;;;;;;;;;;;12.10;83.18;98254.91;4913827;29;20470;-57
2022/10/08 00:38:56;;;;;;;;;;;;;;;12.12;83.27;98247.22;4914945;29;20371;-57
2022/10/08 00:41:25;;;;;;;;;;;;;;;12.10;83.31;98252.16;4914771;29;19934;-57
2022/10/08 00:43:53;;;;;;;;;;;;;;;12.11;83.28;98259.22;4917387;29;19933;-57
2022/10/08 00:46:47;;;;;;;;;;;;;;;12.10;83.36;98258.41;4928180;29;20562;-57
2022/10/08 00:49:15;;;;;;;;;;;;;;;12.08;83.35;98252.47;4933904;29;19954;-58
2022/10/08 00:51:44;;;;;;;;;;;;;;;12.13;83.35;98236.00;4934061;29;19931;-57
2022/10/08 00:54:12;;;;;;;;;;;;;;;12.13;83.20;98232.47;4933208;29;19931;-57
2022/10/08 00:56:40;;;;;;;;;;;;;;;12.13;83.28;98232.47;4933989;29;19994;-57
2022/10/08 00:59:08;;;;;;;;;;;;;;;12.17;83.18;98228.00;4933719;29;19937;-57
2022/10/08 01:01:41;;;;;;;;;;;;;;;12.17;83.15;98220.63;4931697;28;19933;-57
2022/10/08 01:04:13;;;;;;;;;;;;;;;12.18;82.89;98221.44;4932614;29;19963;-58
2022/10/08 01:06:42;;;;;;;;;;;;;;;12.20;83.04;98216.50;4933596;29;19933;-58
2022/10/08 01:09:11;;;;;;;;;;;;;;;12.17;82.93;98214.38;4933488;29;20424;-57
2022/10/08 01:11:46;;;;;;;;;;;;;;;12.18;82.94;98218.72;4933311;29;19927;-58
2022/10/08 01:14:19;;;;;;;;;;;;;;;12.14;83.06;98218.53;4934100;29;20696;-58
2022/10/08 01:16:49;;;;;;;;;;;;;;;12.21;82.74;98229.00;4927194;29;19942;-57
2022/10/08 01:19:26;;;;;;;;;;;;;;;12.22;82.65;98225.16;4937835;29;20394;-57
2022/10/08 01:21:56;;;;;;;;;;;;;;;12.23;82.78;98218.56;4933732;29;19954;-57
2022/10/08 01:25:31;;;;;;;;;;;;;;;12.22;82.70;98215.06;4932393;29;19931;-57
2022/10/08 01:27:41;;;;;;;;;;;;;;;12.22;82.55;98209.59;4932830;29;20477;-57
2022/10/08 01:30:13;;;;;;;;;;;;;;;12.17;82.36;98222.56;4929399;29;19953;-57
2022/10/08 01:32:45;;;;;;;;;;;;;;;12.17;82.43;98223.34;4932074;29;19978;-57
2022/10/08 01:35:15;;;;;;;;;;;;;;;12.20;82.47;98221.94;4932013;29;19941;-57
2022/10/08 01:37:44;;;;;;;;;;;;;;;12.17;82.50;98234.25;4933361;29;19990;-58
2022/10/08 01:40:13;;;;;;;;;;;;;;;12.16;82.70;98220.97;4932693;29;19931;-57
2022/10/08 01:42:45;;;;;;;;;;;;;;;12.15;82.79;98219.34;4933239;29;20526;-57
2022/10/08 01:45:15;;;;;;;;;;;;;;;12.18;82.78;98213.25;4927778;29;19927;-57
2022/10/08 01:47:44;;;;;;;;;;;;;;;12.14;82.90;98207.63;4930999;29;20445;-57
2022/10/08 01:50:13;;;;;;;;;;;;;;;12.16;82.89;98212.78;4933112;29;19927;-57
2022/10/08 01:52:46;;;;;;;;;;;;;;;12.14;82.93;98217.72;4928591;29;19946;-58
2022/10/08 01:55:15;;;;;;;;;;;;;;;12.16;83.17;98215.50;4932039;29;20417;-58
2022/10/08 01:57:46;;;;;;;;;;;;;;;12.19;82.95;98220.31;4933353;29;20479;-57
2022/10/08 02:00:14;;;;;;;;;;;;;;;12.18;83.04;98218.72;4912938;29;19926;-57
2022/10/08 02:02:45;;;;;;;;;;;;;;;12.18;83.11;98213.25;4931029;29;19927;-57
2022/10/08 02:05:15;;;;;;;;;;;;;;;12.21;83.00;98212.66;4929748;29;20534;-58
2022/10/08 02:07:44;;;;;;;;;;;;;;;12.22;82.94;98204.16;4933342;29;19970;-57
2022/10/08 02:10:12;;;;;;;;;;;;;;;12.24;82.84;98203.81;4946040;29;20021;-57
2022/10/08 02:12:40;;;;;;;;;;;;;;;12.25;82.69;98208.16;4945895;29;19934;-57
2022/10/08 02:15:13;;;;;;;;;;;;;;;12.09;83.01;98204.25;4929036;29;20375;-57
2022/10/08 02:17:44;;;;;;;;;;;;;;;12.17;83.07;98203.50;4932414;29;19927;-57
2022/10/08 02:20:14;;;;;;;;;;;;;;;12.19;82.63;98199.31;4934063;29;19955;-57
2022/10/08 02:22:44;;;;;;;;;;;;;;;12.07;83.29;98190.94;4930902;29;20320;-58
2022/10/08 02:25:17;;;;;;;;;;;;;;;12.06;82.83;98187.44;4926195;29;20009;-58
2022/10/08 02:27:48;;;;;;;;;;;;;;;12.14;82.73;98198.66;4939194;29;19930;-57
2022/10/08 02:30:17;;;;;;;;;;;;;;;12.16;82.72;98204.63;4922627;29;20645;-58
2022/10/08 02:32:47;;;;;;;;;;;;;;;12.10;83.05;98197.69;4931649;29;19962;-57
2022/10/08 02:35:40;;;;;;;;;;;;;;;12.15;82.69;98200.28;4935269;29;20502;-58
2022/10/08 02:38:10;;;;;;;;;;;;;;;12.14;82.87;98206.84;4931387;29;20025;-57
2022/10/08 02:40:38;;;;;;;;;;;;;;;12.12;82.89;98203.63;4930865;29;19931;-57
2022/10/08 02:43:09;;;;;;;;;;;;;;;12.16;83.08;98210.88;4930276;29;19931;-57
2022/10/08 02:45:39;;;;;;;;;;;;;;;12.17;82.86;98207.00;4924899;29;19956;-57
2022/10/08 02:48:08;;;;;;;;;;;;;;;12.13;83.17;98202.50;4919935;29;19934;-58
2022/10/08 02:50:37;;;;;;;;;;;;;;;12.16;82.90;98202.69;4941178;29;19927;-57
2022/10/08 02:53:08;;;;;;;;;;;;;;;12.19;82.96;98210.22;4932687;29;19927;-58
2022/10/08 02:55:38;;;;;;;;;;;;;;;12.22;82.85;98204.16;4928123;29;19927;-57
2022/10/08 02:58:06;;;;;;;;;;;;;;;12.23;82.70;98213.94;4931862;29;19950;-57
2022/10/08 03:00:35;;;;;;;;;;;;;;;12.23;82.71;98202.22;4926078;29;20684;-57
2022/10/08 03:03:07;;;;;;;;;;;;;;;12.23;82.76;98202.22;4931320;29;19927;-57
2022/10/08 03:05:36;;;;;;;;;;;;;;;12.22;82.66;98204.16;4930720;29;19937;-57
2022/10/08 03:08:05;;;;;;;;;;;;;;;12.23;82.47;98204.94;4931161;29;19942;-57
2022/10/08 03:10:33;;;;;;;;;;;;;;;12.20;82.73;98203.69;4931606;29;20025;-57
2022/10/08 03:13:01;;;;;;;;;;;;;;;12.20;82.58;98211.84;4931410;29;19934;-57
2022/10/08 03:15:29;;;;;;;;;;;;;;;11.93;83.92;98199.22;4924972;29;19926;-57
2022/10/08 03:17:57;;;;;;;;;;;;;;;12.06;83.37;98201.03;4931429;29;19927;-57
2022/10/08 03:20:26;;;;;;;;;;;;;;;12.02;83.34;98204.69;4930143;29;19930;-57
2022/10/08 03:22:54;;;;;;;;;;;;;;;11.96;84.12;98201.31;4929948;29;19981;-57
2022/10/08 03:25:22;;;;;;;;;;;;;;;11.95;83.86;98216.06;4933430;29;19927;-57
2022/10/08 03:27:49;;;;;;;;;;;;;;;11.94;84.08;98219.91;4932374;29;20022;-57
2022/10/08 03:30:17;;;;;;;;;;;;;;;11.93;84.07;98217.47;4925940;29;20384;-57
2022/10/08 03:32:47;;;;;;;;;;;;;;;11.96;84.00;98204.03;4931338;29;19933;-58
2022/10/08 03:35:15;;;;;;;;;;;;;;;11.87;84.32;98210.53;4931125;29;19982;-57
2022/10/08 03:37:45;;;;;;;;;;;;;;;11.83;84.74;98217.75;4930974;29;19958;-57
2022/10/08 03:40:12;;;;;;;;;;;;;;;11.85;84.43;98210.88;4931275;29;20306;-57
2022/10/08 03:42:44;;;;;;;;;;;;;;;11.90;84.29;98218.91;4931353;29;19927;-57
2022/10/08 03:45:15;;;;;;;;;;;;;;;11.86;84.28;98220.63;4909348;29;20395;-58
2022/10/08 03:47:43;;;;;;;;;;;;;;;11.91;84.04;98225.94;4929440;29;19927;-57
2022/10/08 03:50:10;;;;;;;;;;;;;;;11.86;84.31;98228.00;4933640;29;19927;-57
2022/10/08 03:52:38;;;;;;;;;;;;;;;11.78;84.82;98226.81;4917147;29;20220;-57
2022/10/08 03:55:08;;;;;;;;;;;;;;;11.88;84.28;98223.88;4934524;29;19927;-58
2022/10/08 03:57:36;;;;;;;;;;;;;;;11.84;84.57;98222.88;4917514;29;19933;-57
2022/10/08 04:00:04;;;;;;;;;;;;;;;11.76;84.90;98218.13;4932658;29;19953;-58
2022/10/08 04:02:32;;;;;;;;;;;;;;;11.86;84.46;98222.56;4931469;29;19926;-57
2022/10/08 04:05:02;;;;;;;;;;;;;;;11.82;84.72;98230.53;4932584;29;19931;-57
2022/10/08 04:07:29;;;;;;;;;;;;;;;11.82;84.40;98222.38;4934107;29;19949;-57
2022/10/08 04:09:57;;;;;;;;;;;;;;;11.80;84.58;98221.84;4934954;29;19931;-57
2022/10/08 04:12:26;;;;;;;;;;;;;;;11.72;84.69;98217.97;4933938;29;19977;-58
2022/10/08 04:14:54;;;;;;;;;;;;;;;11.73;84.68;98224.22;4934798;29;19927;-58
2022/10/08 04:17:21;;;;;;;;;;;;;;;11.68;84.83;98221.63;4929052;29;19927;-58
2022/10/08 04:19:49;;;;;;;;;;;;;;;11.79;84.26;98225.69;4934995;29;19927;-57
2022/10/08 04:22:22;;;;;;;;;;;;;;;11.82;84.11;98219.66;4933976;29;19927;-57
2022/10/08 04:24:50;;;;;;;;;;;;;;;11.85;83.95;98223.69;4934611;29;20396;-57
2022/10/08 04:27:18;;;;;;;;;;;;;;;11.83;83.75;98220.47;4933680;29;19958;-57
2022/10/08 04:30:11;;;;;;;;;;;;;;;11.84;83.72;98225.59;4934069;29;19934;-57
2022/10/08 04:32:47;;;;;;;;;;;;;;;11.85;83.59;98229.13;4929601;29;19938;-57
2022/10/08 04:35:15;;;;;;;;;;;;;;;11.86;83.64;98233.44;4934224;29;19927;-57
2022/10/08 04:37:43;;;;;;;;;;;;;;;11.82;83.64;98232.44;4934010;29;19927;-57
2022/10/08 04:40:10;;;;;;;;;;;;;;;11.82;83.44;98230.53;4933677;29;19938;-57
2022/10/08 04:42:38;;;;;;;;;;;;;;;11.84;83.24;98230.25;4933614;29;19970;-57
2022/10/08 04:45:06;;;;;;;;;;;;;;;11.75;83.70;98227.44;4930092;29;20300;-57
2022/10/08 04:47:34;;;;;;;;;;;;;;;11.78;83.66;98227.63;4932443;29;19930;-57
2022/10/08 04:50:04;;;;;;;;;;;;;;;11.83;83.48;98228.66;4932204;29;19958;-57
2022/10/08 04:52:31;;;;;;;;;;;;;;;11.85;83.29;98232.66;4933331;29;19931;-57
2022/10/08 04:55:05;;;;;;;;;;;;;;;11.84;83.38;98231.03;4933698;29;20365;-57
2022/10/08 04:57:33;;;;;;;;;;;;;;;11.84;83.43;98231.03;4933289;29;19927;-58
2022/10/08 05:00:01;;;;;;;;;;;;;;;11.86;83.36;98239.69;4933352;29;19937;-57
2022/10/08 05:02:45;;;;;;;;;;;;;;;11.79;83.62;98239.31;4931348;29;20339;-57
2022/10/08 05:05:15;;;;;;;;;;;;;;;11.77;83.69;98241.53;4932274;29;20584;-57
2022/10/08 05:07:42;;;;;;;;;;;;;;;11.81;83.40;98234.34;4933308;29;20492;-57
2022/10/08 05:10:10;;;;;;;;;;;;;;;11.83;83.25;98240.34;4932176;29;19934;-57
2022/10/08 05:12:38;;;;;;;;;;;;;;;11.85;83.33;98243.53;4934628;29;20364;-57
2022/10/08 05:15:06;;;;;;;;;;;;;;;11.83;83.46;98244.97;4932459;29;19926;-58
2022/10/08 05:17:34;;;;;;;;;;;;;;;11.87;83.47;98241.28;4916235;29;20684;-57
2022/10/08 05:20:02;;;;;;;;;;;;;;;11.90;83.24;98250.78;4932531;29;19949;-57
2022/10/08 05:22:31;;;;;;;;;;;;;;;11.91;83.13;98247.72;4929329;29;19926;-57
2022/10/08 05:24:59;;;;;;;;;;;;;;;11.88;83.48;98253.81;4929488;29;19934;-57
2022/10/08 05:27:27;;;;;;;;;;;;;;;11.95;83.38;98254.16;4915478;29;19996;-58
2022/10/08 05:29:54;;;;;;;;;;;;;;;11.95;83.33;98256.88;4930491;29;20617;-58
2022/10/08 05:32:23;;;;;;;;;;;;;;;11.95;83.21;98254.16;4926792;29;19934;-57
2022/10/08 05:35:15;;;;;;;;;;;;;;;11.99;83.08;98263.31;4932078;29;20238;-57
2022/10/08 05:37:51;;;;;;;;;;;;;;;12.02;83.04;98261.88;4931923;29;19934;-57
2022/10/08 05:40:43;;;;;;;;;;;;;;;11.99;82.99;98276.94;4932602;29;20284;-57
2022/10/08 05:43:15;;;;;;;;;;;;;;;12.04;82.79;98273.28;4932633;29;19931;-57
2022/10/08 05:46:08;;;;;;;;;;;;;;;12.03;82.96;98280.63;4926508;29;19937;-58
2022/10/08 05:48:37;;;;;;;;;;;;;;;12.02;83.16;98286.38;4931302;29;19927;-57
2022/10/08 05:51:05;;;;;;;;;;;;;;;12.04;83.00;98284.97;4931904;29;19927;-57
2022/10/08 05:53:36;;;;;;;;;;;;;;;12.00;83.37;98284.00;4932983;29;20033;-58
2022/10/08 05:56:04;;;;;;;;;;;;;;;11.98;83.55;98280.75;4929370;29;19931;-57
2022/10/08 05:58:33;;;;;;;;;;;;;;;11.98;83.73;98274.50;4931543;29;19962;-57
2022/10/08 06:01:04;;;;;;;;;;;;;;;12.04;83.31;98279.53;4929015;29;19954;-57
2022/10/08 06:03:32;;;;;;;;;;;;;;;12.01;83.54;98279.34;4929197;29;19938;-57
2022/10/08 06:06:05;;;;;;;;;;;;;;;12.03;83.48;98288.78;4908930;29;20051;-57
2022/10/08 06:08:33;;;;;;;;;;;;;;;12.06;83.48;98295.56;4917228;29;19934;-58
2022/10/08 06:11:03;;;;;;;;;;;;;;;12.10;83.41;98298.47;4923461;29;19931;-57
2022/10/08 06:13:30;;;;;;;;;;;;;;;12.14;83.25;98304.88;4920016;29;19935;-57
2022/10/08 06:15:59;;;;;;;;;;;;;;;12.13;83.18;98308.72;4917880;29;19927;-57
2022/10/08 06:18:27;;;;;;;;;;;;;;;12.16;83.36;98310.84;4917812;29;19974;-58
2022/10/08 06:20:55;;;;;;;;;;;;;;;12.21;83.24;98316.16;4927146;29;19926;-57
2022/10/08 06:23:23;;;;;;;;;;;;;;;12.22;82.97;98315.84;4917932;29;19927;-58
2022/10/08 06:25:51;;;;;;;;;;;;;;;12.24;82.77;98315.50;4915689;29;19927;-57
2022/10/08 06:31:38;;;;;;;;;;;;;;;12.30;82.63;98322.44;4913115;29;20022;-57
2022/10/08 06:34:06;;;;;;;;;;;;;;;12.32;82.92;98321.03;4916272;29;20021;-57
2022/10/08 06:36:35;;;;;;;;;;;;;;;12.32;82.77;98331.91;4926161;29;20348;-58
2022/10/08 06:39:04;;;;;;;;;;;;;;;12.35;82.63;98330.47;4923688;29;19935;-58
2022/10/08 06:41:33;;;;;;;;;;;;;;;12.36;82.58;98334.00;4925289;29;19927;-57
2022/10/08 06:44:03;;;;;;;;;;;;;;;12.38;82.59;98331.78;4923907;29;20018;-57
2022/10/08 06:46:37;;;;;;;;;;;;;;;12.38;82.32;98338.03;4909848;29;20431;-57
2022/10/08 06:49:05;;;;;;;;;;;;;;;12.42;82.39;98341.75;4937441;29;19934;-57
2022/10/08 06:51:33;;;;;;;;;;;;;;;12.42;82.57;98344.47;4927576;29;21653;-57
2022/10/08 06:54:01;;;;;;;;;;;;;;;12.46;82.39;98337.25;4932042;29;20025;-57
2022/10/08 06:56:34;;;;;;;;;;;;;;;12.51;82.46;98333.59;4933263;29;20026;-56
2022/10/08 06:59:04;;;;;;;;;;;;;;;12.51;82.56;98339.84;4939324;29;19930;-56
2022/10/08 07:01:31;;;;;;;;;;;;;;;12.59;82.46;98338.31;4920392;29;19931;-56
2022/10/08 07:04:00;;;;;;;;;;;;;;;12.65;82.06;98341.69;4934012;29;19927;-57
2022/10/08 07:06:28;;;;;;;;;;;;;;;12.69;82.06;98345.41;4934813;29;19933;-57
2022/10/08 07:08:57;;;;;;;;;;;;;;;12.73;82.11;98338.19;4932648;29;20033;-57
2022/10/08 07:11:25;;;;;;;;;;;;;;;12.76;82.04;98337.56;4936948;29;19935;-57
2022/10/08 07:13:53;;;;;;;;;;;;;;;12.81;82.04;98345.59;4933089;29;20311;-57
2022/10/08 07:16:26;;;;;;;;;;;;;;;12.84;81.88;98342.25;4932435;29;19926;-57
2022/10/08 07:18:54;;;;;;;;;;;;;;;12.89;81.68;98344.84;4922573;29;19927;-57
2022/10/08 07:21:22;;;;;;;;;;;;;;;12.91;81.60;98353.50;4926528;29;20032;-57
2022/10/08 07:23:51;;;;;;;;;;;;;;;12.87;81.91;98347.06;4918437;29;19935;-57
2022/10/08 07:26:20;;;;;;;;;;;;;;;12.95;81.73;98345.50;4921837;29;19926;-57
2022/10/08 07:31:41;;;;;;;;;;;;;;;13.11;81.62;98349.41;4910691;29;20058;-57
2022/10/08 07:34:10;;;;;;;;;;;;;;;13.17;81.26;98356.31;4919353;29;20508;-57
2022/10/08 07:36:38;;;;;;;;;;;;;;;13.22;81.24;98366.31;4929232;29;19982;-57
2022/10/08 07:39:07;;;;;;;;;;;;;;;13.30;81.36;98357.34;4935229;29;19927;-57
2022/10/08 07:41:35;;;;;;;;;;;;;;;13.37;81.22;98360.41;4932795;29;19930;-58
2022/10/08 07:44:28;;;;;;;;;;;;;;;13.43;81.15;98361.88;4937770;29;19934;-57
2022/10/08 07:46:58;;;;;;;;;;;;;;;13.47;80.93;98367.47;4931101;28;19957;-56
2022/10/08 07:49:26;;;;;;;;;;;;;;;13.54;81.12;98363.16;4939536;29;20307;-57
2022/10/08 07:51:54;;;;;;;;;;;;;;;13.54;81.10;98365.88;4914722;29;19933;-57
2022/10/08 07:54:23;;;;;;;;;;;;;;;13.63;80.92;98360.41;4921342;29;19935;-57
2022/10/08 07:56:51;;;;;;;;;;;;;;;13.69;81.10;98374.72;4929036;29;19926;-57
2022/10/08 07:59:19;;;;;;;;;;;;;;;13.77;80.86;98371.19;4933396;29;19927;-57
2022/10/08 08:01:47;;;;;;;;;;;;;;;13.91;80.73;98377.31;4927287;29;19949;-57
2022/10/08 08:04:16;;;;;;;;;;;;;;;13.98;80.79;98380.34;4931856;29;19927;-57
2022/10/08 08:06:46;;;;;;;;;;;;;;;14.10;80.52;98380.50;4934617;29;19930;-57
2022/10/08 08:09:14;;;;;;;;;;;;;;;14.19;80.47;98379.72;4937222;29;19926;-57
2022/10/08 08:11:42;;;;;;;;;;;;;;;14.28;79.82;98389.50;4935517;29;20031;-57
2022/10/08 08:14:11;;;;;;;;;;;;;;;14.33;79.42;98394.81;4933995;29;19938;-57
2022/10/08 08:16:39;;;;;;;;;;;;;;;14.38;79.41;98397.38;4920748;29;19934;-57
2022/10/08 08:19:07;;;;;;;;;;;;;;;14.38;79.29;98386.44;4928665;29;19931;-57
2022/10/08 08:21:36;;;;;;;;;;;;;;;14.40;79.43;98386.91;4929318;29;20335;-56
2022/10/08 08:24:08;;;;;;;;;;;;;;;14.45;79.31;98385.13;4928832;29;20013;-57
2022/10/08 08:26:37;;;;;;;;;;;;;;;14.46;78.68;98389.47;4907656;29;19927;-57
2022/10/08 08:29:06;;;;;;;;;;;;;;;14.48;78.66;98390.75;4930267;29;19955;-57
2022/10/08 08:31:35;;;;;;;;;;;;;;;14.51;78.98;98398.34;4933065;29;19930;-57
2022/10/08 08:34:04;;;;;;;;;;;;;;;14.58;78.91;98401.38;4938836;29;19934;-57
2022/10/08 08:36:33;;;;;;;;;;;;;;;14.63;78.19;98406.66;4935450;29;20036;-57
2022/10/08 08:39:02;;;;;;;;;;;;;;;14.62;78.19;98402.31;4937610;29;19926;-57
2022/10/08 08:41:34;;;;;;;;;;;;;;;14.61;76.58;98406.19;4930852;29;19931;-57
2022/10/08 08:46:55;;;;;;;;;;;;;;;14.70;75.29;98410.81;4933858;28;19969;-57
2022/10/08 08:49:25;;;;;;;;;;;;;;;14.80;75.33;98413.22;4917118;29;19931;-57
2022/10/08 08:51:52;;;;;;;;;;;;;;;14.78;75.68;98418.22;4933641;29;19938;-57
2022/10/08 08:54:22;;;;;;;;;;;;;;;14.85;75.46;98426.72;4931286;29;19932;-57
2022/10/08 08:56:51;;;;;;;;;;;;;;;14.90;75.22;98429.28;4929764;29;20280;-57
2022/10/08 08:59:23;;;;;;;;;;;;;;;14.92;74.95;98421.56;4935287;29;19934;-57
2022/10/08 09:01:51;;;;;;;;;;;;;;;14.96;73.96;98418.94;4919723;29;20029;-57
2022/10/08 09:04:21;;;;;;;;;;;;;;;14.96;74.16;98417.00;4934437;29;19933;-57
2022/10/08 09:06:49;;;;;;;;;;;;;;;15.05;73.77;98415.06;4911642;29;20431;-57
2022/10/08 09:09:20;;;;;;;;;;;;;;;15.08;73.34;98411.69;4933569;29;20029;-57
2022/10/08 09:11:49;;;;;;;;;;;;;;;15.12;73.12;98411.81;4947932;29;19933;-57
2022/10/08 09:14:31;;;;;;;;;;;;;;;15.26;72.00;98414.31;4938506;29;19926;-57
2022/10/08 09:17:00;;;;;;;;;;;;;;;15.26;71.68;98414.31;4929619;29;19933;-56
2022/10/08 09:19:33;;;;;;;;;;;;;;;15.31;71.36;98412.19;4934937;29;19982;-57
2022/10/08 09:22:01;;;;;;;;;;;;;;;15.34;70.34;98416.19;4938128;29;19927;-57
2022/10/08 09:27:22;;;;;;;;;;;;;;;15.40;70.02;98404.75;4922396;29;19978;-57
2022/10/08 09:29:53;;;;;;;;;;;;;;;15.42;69.78;98407.94;4933830;29;20021;-57
2022/10/08 09:32:21;;;;;;;;;;;;;;;15.45;69.59;98412.78;4931645;29;19926;-57
2022/10/08 09:35:15;;;;;;;;;;;;;;;15.54;69.27;98404.50;4936632;29;19927;-57
2022/10/08 09:37:45;;;;;;;;;;;;;;;15.67;68.41;98414.44;4927866;29;19982;-57
2022/10/08 09:40:17;;;;;;;;;;;;;;;15.78;68.37;98408.56;4943611;29;19927;-57
2022/10/08 09:45:45;;;;;;;;;;;;;;;16.11;65.98;98412.19;5073889;27;19952;-56
2022/10/08 09:48:17;;;;;;;;;;;;;;;16.14;64.32;98406.03;5030251;28;19925;-56
2022/10/08 09:50:52;;;;;;;;;;;;;;;16.11;64.65;98417.66;5033034;28;19945;-56
2022/10/08 09:53:21;;;;;;;;;;;;;;;15.96;64.03;98421.00;5028069;28;19931;-56
2022/10/08 09:55:50;;;;;;;;;;;;;;;15.97;63.72;98422.59;5023255;28;19926;-56
2022/10/08 09:58:19;;;;;;;;;;;;;;;15.89;62.81;98426.22;5013667;28;19952;-56
2022/10/08 10:00:56;;;;;;;;;;;;;;;15.83;60.97;98416.59;5022371;28;19966;-56
2022/10/08 10:03:24;;;;;;;;;;;;;;;15.83;60.47;98417.41;5024292;28;19930;-56
2022/10/08 10:05:54;;;;;;;;;;;;;;;15.84;60.77;98416.25;5026979;28;20005;-55
2022/10/08 10:08:47;;;;;;;;;;;;;;;15.91;60.21;98413.78;5016495;28;19925;-56
2022/10/08 10:11:17;;;;;;;;;;;;;;;15.91;58.79;98422.00;5020135;28;19926;-56
2022/10/08 10:13:45;;;;;;;;;;;;;;;15.97;58.98;98417.13;5027146;28;20503;-56
2022/10/08 10:16:17;;;;;;;;;;;;;;;16.01;59.17;98409.03;5020433;28;19957;-56
2022/10/08 10:18:48;;;;;;;;;;;;;;;15.99;58.99;98417.59;4997011;28;20299;-56
2022/10/08 10:21:16;;;;;;;;;;;;;;;15.97;58.49;98425.34;5013810;28;19984;-56
2022/10/08 10:23:48;;;;;;;;;;;;;;;15.93;58.31;98430.72;5022335;28;19929;-56
2022/10/08 10:26:16;;;;;;;;;;;;;;;15.86;57.58;98422.19;5009319;28;20353;-55
2022/10/08 10:28:46;;;;;;;;;;;;;;;15.78;57.50;98414.06;5018482;28;20307;-56
2022/10/08 10:31:16;;;;;;;;;;;;;;;15.74;56.28;98424.06;5011432;28;19926;-56
2022/10/08 10:33:48;;;;;;;;;;;;;;;15.67;55.09;98422.66;5022888;28;19933;-56
2022/10/08 10:36:17;;;;;;;;;;;;;;;15.68;53.38;98416.03;5021777;28;20317;-56
2022/10/08 10:38:47;;;;;;;;;;;;;;;15.78;53.49;98417.59;5023061;28;20402;-56
2022/10/08 10:41:17;;;;;;;;;;;;;;;15.80;53.38;98417.25;5001478;28;20039;-57
2022/10/08 10:43:49;;;;;;;;;;;;;;;15.79;52.16;98418.41;5021619;28;19972;-56
2022/10/08 10:46:22;;;;;;;;;;;;;;;15.79;51.92;98416.44;5012811;28;19925;-56
2022/10/08 10:48:51;;;;;;;;;;;;;;;15.83;51.84;98409.19;5021161;28;19926;-56
2022/10/08 10:51:37;;;;;;;;;;;;;;;15.86;50.62;98413.97;5003501;28;19926;-56
2022/10/08 10:54:08;;;;;;;;;;;;;;;15.84;49.75;98423.69;5019128;28;20406;-56
2022/10/08 10:56:37;;;;;;;;;;;;;;;15.77;49.33;98415.19;5011823;28;20025;-56
2022/10/08 10:59:12;;;;;;;;;;;;;;;15.78;49.03;98433.22;5006003;28;19933;-56
2022/10/08 11:01:44;;;;;;;;;;;;;;;15.77;47.11;98421.47;5002092;28;19925;-56
2022/10/08 11:04:15;;;;;;;;;;;;;;;15.77;47.80;98428.91;5007247;28;19933;-56
2022/10/08 11:06:47;;;;;;;;;;;;;;;15.82;48.03;98436.88;5008430;28;19930;-56
2022/10/08 11:09:16;;;;;;;;;;;;;;;15.83;47.73;98433.03;4989649;28;20480;-57
2022/10/08 11:11:47;;;;;;;;;;;;;;;15.71;48.87;98429.09;5008329;28;20378;-56
2022/10/08 11:14:30;;;;;;;;;;;;;;;15.62;49.38;98435.72;5006227;28;19929;-56
2022/10/08 11:17:01;;;;;;;;;;;;;;;15.67;50.11;98430.88;4998634;28;19930;-56
2022/10/08 11:19:36;;;;;;;;;;;;;;;15.67;49.95;98438.28;5008909;28;19972;-56
2022/10/08 11:22:06;;;;;;;;;;;;;;;15.64;50.33;98426.06;5011345;28;19925;-56
2022/10/08 11:24:49;;;;;;;;;;;;;;;15.70;49.85;98430.19;5007814;28;19933;-56
2022/10/08 11:27:20;;;;;;;;;;;;;;;15.66;49.01;98434.75;5003840;28;19926;-56
2022/10/08 11:29:53;;;;;;;;;;;;;;;15.65;48.91;98437.81;4981400;28;20653;-56
2022/10/08 11:32:23;;;;;;;;;;;;;;;15.56;49.84;98437.03;4996687;28;20228;-56
2022/10/08 11:34:52;;;;;;;;;;;;;;;15.57;49.67;98442.19;5004886;28;19929;-56
2022/10/08 11:37:21;;;;;;;;;;;;;;;15.62;50.16;98442.00;5005150;28;20441;-56
2022/10/08 11:39:51;;;;;;;;;;;;;;;15.55;49.02;98455.38;5009092;28;19948;-56
2022/10/08 11:42:23;;;;;;;;;;;;;;;15.64;49.58;98442.47;5007769;28;19926;-56
2022/10/08 11:44:52;;;;;;;;;;;;;;;15.65;48.33;98444.09;5003700;28;19969;-56
2022/10/08 11:47:35;;;;;;;;;;;;;;;15.68;48.36;98448.91;4982691;28;19977;-56
2022/10/08 11:50:04;;;;;;;;;;;;;;;15.76;48.62;98451.91;4983610;28;19926;-56
2022/10/08 11:52:32;;;;;;;;;;;;;;;15.78;47.79;98435.97;4988305;28;19930;-56
2022/10/08 11:57:54;;;;;;;;;;;;;;;15.89;48.64;98443.47;4989843;28;19925;-56
2022/10/08 12:00:36;;;;;;;;;;;;;;;16.00;48.81;98432.91;4978623;28;19926;-56
2022/10/08 12:03:06;;;;;;;;;;;;;;;16.02;48.50;98436.09;5005042;28;19941;-56
2022/10/08 12:05:36;;;;;;;;;;;;;;;16.03;48.79;98447.88;4984984;28;19925;-56
2022/10/08 12:08:47;;;;;;;;;;;;;;;16.01;48.87;98441.94;4985453;28;19952;-56
2022/10/08 12:11:39;;;;;;;;;;;;;;;15.85;49.00;98436.22;4988168;28;19926;-56
2022/10/08 12:14:40;;;;;;;;;;;;;;;15.74;49.38;98445.97;4967856;28;19934;-56
2022/10/08 12:17:09;;;;;;;;;;;;;;;15.73;49.97;98439.69;4955863;28;20591;-55
2022/10/08 12:20:06;;;;;;;;;;;;;;;15.70;49.94;98440.34;4961716;28;20555;-56
2022/10/08 12:22:42;;;;;;;;;;;;;;;15.71;50.23;98448.25;4963288;28;19982;-56
2022/10/08 12:25:33;;;;;;;;;;;;;;;15.76;50.47;98451.91;4966025;28;19930;-56
2022/10/08 12:28:28;;;;;;;;;;;;;;;15.74;50.59;98446.78;4958416;28;19966;-56
2022/10/08 12:31:26;;;;;;;;;;;;;;;15.71;50.59;98442.78;4937433;28;19985;-57
2022/10/08 12:33:55;;;;;;;;;;;;;;;15.73;50.55;98442.44;4965693;28;20012;-56
2022/10/08 12:36:25;;;;;;;;;;;;;;;15.78;50.47;98446.94;4963117;28;19957;-56
2022/10/08 12:39:20;;;;;;;;;;;;;;;15.77;50.65;98451.63;4946736;28;19934;-56
2022/10/08 12:41:51;;;;;;;;;;;;;;;15.77;50.26;98445.34;4952182;28;19927;-56
2022/10/08 12:44:23;;;;;;;;;;;;;;;15.66;50.29;98444.91;4946268;28;19926;-56
2022/10/08 12:46:52;;;;;;;;;;;;;;;15.66;49.95;98445.72;4954292;28;19926;-56
2022/10/08 12:49:22;;;;;;;;;;;;;;;15.68;50.47;98448.13;4987738;28;19933;-56
2022/10/08 12:51:51;;;;;;;;;;;;;;;15.77;50.21;98445.34;4985889;28;19925;-56
2022/10/08 12:54:21;;;;;;;;;;;;;;;15.88;49.86;98455.56;4985935;28;19936;-56
2022/10/08 12:57:15;;;;;;;;;;;;;;;15.88;49.97;98446.53;4988359;28;19926;-56
2022/10/08 12:59:44;;;;;;;;;;;;;;;15.84;49.28;98459.28;4984151;28;19926;-56
2022/10/08 13:02:30;;;;;;;;;;;;;;;15.88;49.54;98457.50;4978110;28;19926;-56
2022/10/08 13:04:59;;;;;;;;;;;;;;;15.90;50.08;98449.75;4993102;28;19933;-55
2022/10/08 13:07:28;;;;;;;;;;;;;;;15.96;50.27;98445.66;5000753;28;19930;-56
2022/10/08 13:09:58;;;;;;;;;;;;;;;15.98;50.10;98440.66;4986935;28;19925;-56
2022/10/08 13:12:25;;;;;;;;;;;;;;;16.00;50.40;98443.88;4988828;28;20501;-55
2022/10/08 13:14:59;;;;;;;;;;;;;;;15.98;49.44;98446.16;4988558;28;20400;-56
2022/10/08 13:17:29;;;;;;;;;;;;;;;16.08;50.46;98445.72;4978840;28;20602;-55
2022/10/08 13:20:04;;;;;;;;;;;;;;;16.19;49.72;98446.94;4983488;28;20033;-56
2022/10/08 13:22:34;;;;;;;;;;;;;;;16.19;48.57;98463.41;4988866;28;20024;-56
2022/10/08 13:25:37;;;;;;;;;;;;;;;16.18;48.67;98463.72;4988714;28;20012;-56
2022/10/08 13:28:10;;;;;;;;;;;;;;;16.20;48.30;98462.25;4983845;28;20025;-56